sensor_id;sensor_type;location;lat;lon;timestamp;P1;durP1;ratioP1;P2;durP2;ratioP2
33954;SDS011;20233;50.804;7.126;2023-11-18T00:01:23;139.52;;;27.65;;
33954;SDS011;20233;50.804;7.126;2023-11-18T00:03:49;135.77;;;28.60;;
33954;SDS011;20233;50.804;7.126;2023-11-18T00:06:14;120.00;;;24.13;;
33954;SDS011;20233;50.804;7.126;2023-11-18T00:08:40;123.63;;;25.85;;
33954;SDS011;20233;50.804;7.126;2023-11-18T00:11:05;114.13;;;25.20;;
33954;SDS011;20233;50.804;7.126;2023-11-18T00:13:31;107.88;;;25.20;;
33954;SDS011;20233;50.804;7.126;2023-11-18T00:15:58;128.55;;;25.75;;
33954;SDS011;20233;50.804;7.126;2023-11-18T00:18:23;103.55;;;24.20;;
33954;SDS011;20233;50.804;7.126;2023-11-18T00:20:49;118.32;;;24.90;;
33954;SDS011;20233;50.804;7.126;2023-11-18T00:23:16;110.45;;;25.88;;
33954;SDS011;20233;50.804;7.126;2023-11-18T00:25:42;108.35;;;24.35;;
33954;SDS011;20233;50.804;7.126;2023-11-18T00:28:10;103.10;;;24.40;;
33954;SDS011;20233;50.804;7.126;2023-11-18T00:30:35;104.38;;;24.67;;
33954;SDS011;20233;50.804;7.126;2023-11-18T00:33:01;100.68;;;24.77;;
33954;SDS011;20233;50.804;7.126;2023-11-18T00:35:26;93.72;;;24.83;;
33954;SDS011;20233;50.804;7.126;2023-11-18T00:37:52;106.85;;;26.33;;
33954;SDS011;20233;50.804;7.126;2023-11-18T00:40:17;98.22;;;25.90;;
33954;SDS011;20233;50.804;7.126;2023-11-18T00:42:43;100.75;;;24.38;;
33954;SDS011;20233;50.804;7.126;2023-11-18T00:45:10;97.43;;;25.63;;
33954;SDS011;20233;50.804;7.126;2023-11-18T00:47:37;105.28;;;24.35;;
33954;SDS011;20233;50.804;7.126;2023-11-18T00:50:04;95.63;;;24.48;;
33954;SDS011;20233;50.804;7.126;2023-11-18T00:52:33;106.13;;;27.27;;
33954;SDS011;20233;50.804;7.126;2023-11-18T00:54:59;101.88;;;26.00;;
33954;SDS011;20233;50.804;7.126;2023-11-18T00:57:25;98.30;;;25.02;;
33954;SDS011;20233;50.804;7.126;2023-11-18T00:59:50;89.47;;;24.55;;
33954;SDS011;20233;50.804;7.126;2023-11-18T01:02:16;87.93;;;23.48;;
33954;SDS011;20233;50.804;7.126;2023-11-18T01:04:43;87.55;;;22.98;;
33954;SDS011;20233;50.804;7.126;2023-11-18T01:07:11;89.50;;;25.33;;
33954;SDS011;20233;50.804;7.126;2023-11-18T01:09:37;79.47;;;23.63;;
33954;SDS011;20233;50.804;7.126;2023-11-18T01:12:05;82.00;;;23.13;;
33954;SDS011;20233;50.804;7.126;2023-11-18T01:14:34;82.93;;;24.30;;
33954;SDS011;20233;50.804;7.126;2023-11-18T01:17:01;78.15;;;23.23;;
33954;SDS011;20233;50.804;7.126;2023-11-18T01:19:26;85.85;;;23.83;;
33954;SDS011;20233;50.804;7.126;2023-11-18T01:21:53;76.10;;;22.20;;
33954;SDS011;20233;50.804;7.126;2023-11-18T01:24:19;69.90;;;20.67;;
33954;SDS011;20233;50.804;7.126;2023-11-18T01:26:45;75.40;;;21.75;;
33954;SDS011;20233;50.804;7.126;2023-11-18T01:29:10;75.15;;;23.98;;
33954;SDS011;20233;50.804;7.126;2023-11-18T01:31:36;71.43;;;22.27;;
33954;SDS011;20233;50.804;7.126;2023-11-18T01:34:02;70.55;;;21.48;;
33954;SDS011;20233;50.804;7.126;2023-11-18T01:36:29;77.78;;;23.33;;
33954;SDS011;20233;50.804;7.126;2023-11-18T01:38:55;74.13;;;22.73;;
33954;SDS011;20233;50.804;7.126;2023-11-18T01:41:22;66.20;;;20.75;;
33954;SDS011;20233;50.804;7.126;2023-11-18T01:43:48;65.22;;;21.33;;
33954;SDS011;20233;50.804;7.126;2023-11-18T01:46:13;60.95;;;20.63;;
33954;SDS011;20233;50.804;7.126;2023-11-18T01:48:42;61.95;;;21.02;;
33954;SDS011;20233;50.804;7.126;2023-11-18T01:51:09;54.22;;;18.02;;
33954;SDS011;20233;50.804;7.126;2023-11-18T01:53:36;57.08;;;19.48;;
33954;SDS011;20233;50.804;7.126;2023-11-18T01:56:03;53.50;;;19.27;;
33954;SDS011;20233;50.804;7.126;2023-11-18T01:58:31;56.92;;;19.67;;
33954;SDS011;20233;50.804;7.126;2023-11-18T02:01:01;58.33;;;21.02;;
33954;SDS011;20233;50.804;7.126;2023-11-18T02:05:57;48.60;;;18.27;;
33954;SDS011;20233;50.804;7.126;2023-11-18T02:08:23;48.45;;;17.88;;
33954;SDS011;20233;50.804;7.126;2023-11-18T02:10:54;54.60;;;20.10;;
33954;SDS011;20233;50.804;7.126;2023-11-18T02:13:23;52.50;;;18.13;;
33954;SDS011;20233;50.804;7.126;2023-11-18T02:15:54;46.50;;;18.00;;
33954;SDS011;20233;50.804;7.126;2023-11-18T02:18:25;41.65;;;16.38;;
33954;SDS011;20233;50.804;7.126;2023-11-18T02:20:54;50.78;;;18.27;;
33954;SDS011;20233;50.804;7.126;2023-11-18T02:23:22;49.25;;;17.17;;
33954;SDS011;20233;50.804;7.126;2023-11-18T02:25:48;45.03;;;18.08;;
33954;SDS011;20233;50.804;7.126;2023-11-18T02:28:14;43.83;;;17.23;;
33954;SDS011;20233;50.804;7.126;2023-11-18T02:30:40;43.22;;;18.05;;
33954;SDS011;20233;50.804;7.126;2023-11-18T02:33:11;39.33;;;17.23;;
33954;SDS011;20233;50.804;7.126;2023-11-18T02:35:46;40.00;;;17.02;;
33954;SDS011;20233;50.804;7.126;2023-11-18T02:38:19;46.72;;;17.35;;
33954;SDS011;20233;50.804;7.126;2023-11-18T02:40:50;40.88;;;18.85;;
33954;SDS011;20233;50.804;7.126;2023-11-18T02:43:21;41.97;;;17.48;;
33954;SDS011;20233;50.804;7.126;2023-11-18T02:45:49;44.40;;;18.80;;
33954;SDS011;20233;50.804;7.126;2023-11-18T02:48:16;47.95;;;17.88;;
33954;SDS011;20233;50.804;7.126;2023-11-18T02:50:43;49.60;;;18.45;;
33954;SDS011;20233;50.804;7.126;2023-11-18T02:53:08;49.47;;;20.35;;
33954;SDS011;20233;50.804;7.126;2023-11-18T02:55:34;44.83;;;17.30;;
33954;SDS011;20233;50.804;7.126;2023-11-18T02:58:00;47.10;;;19.55;;
33954;SDS011;20233;50.804;7.126;2023-11-18T03:00:27;48.80;;;19.15;;
33954;SDS011;20233;50.804;7.126;2023-11-18T03:02:53;46.47;;;18.20;;
33954;SDS011;20233;50.804;7.126;2023-11-18T03:05:19;46.00;;;19.42;;
33954;SDS011;20233;50.804;7.126;2023-11-18T03:07:45;51.53;;;21.40;;
33954;SDS011;20233;50.804;7.126;2023-11-18T03:10:15;50.80;;;19.60;;
33954;SDS011;20233;50.804;7.126;2023-11-18T03:12:46;45.13;;;19.40;;
33954;SDS011;20233;50.804;7.126;2023-11-18T03:15:15;46.83;;;19.38;;
33954;SDS011;20233;50.804;7.126;2023-11-18T03:17:43;49.95;;;19.52;;
33954;SDS011;20233;50.804;7.126;2023-11-18T03:20:13;43.67;;;19.65;;
33954;SDS011;20233;50.804;7.126;2023-11-18T03:22:46;46.88;;;18.60;;
33954;SDS011;20233;50.804;7.126;2023-11-18T03:25:12;49.28;;;18.42;;
33954;SDS011;20233;50.804;7.126;2023-11-18T03:27:38;51.05;;;20.15;;
33954;SDS011;20233;50.804;7.126;2023-11-18T03:30:05;48.90;;;19.67;;
33954;SDS011;20233;50.804;7.126;2023-11-18T03:32:32;46.85;;;19.13;;
33954;SDS011;20233;50.804;7.126;2023-11-18T03:34:57;45.38;;;19.27;;
33954;SDS011;20233;50.804;7.126;2023-11-18T03:37:26;53.50;;;20.13;;
33954;SDS011;20233;50.804;7.126;2023-11-18T03:39:52;45.33;;;19.30;;
33954;SDS011;20233;50.804;7.126;2023-11-18T03:42:17;49.35;;;20.70;;
33954;SDS011;20233;50.804;7.126;2023-11-18T03:44:43;42.00;;;18.70;;
33954;SDS011;20233;50.804;7.126;2023-11-18T03:47:13;44.45;;;17.15;;
33954;SDS011;20233;50.804;7.126;2023-11-18T03:49:39;49.20;;;19.80;;
33954;SDS011;20233;50.804;7.126;2023-11-18T03:52:05;45.20;;;20.00;;
33954;SDS011;20233;50.804;7.126;2023-11-18T03:54:31;47.28;;;19.48;;
33954;SDS011;20233;50.804;7.126;2023-11-18T03:56:57;48.50;;;19.73;;
33954;SDS011;20233;50.804;7.126;2023-11-18T03:59:22;44.55;;;19.50;;
33954;SDS011;20233;50.804;7.126;2023-11-18T04:01:48;48.15;;;19.83;;
33954;SDS011;20233;50.804;7.126;2023-11-18T04:04:15;45.63;;;19.17;;
33954;SDS011;20233;50.804;7.126;2023-11-18T04:06:41;47.08;;;18.75;;
33954;SDS011;20233;50.804;7.126;2023-11-18T04:09:07;46.13;;;19.45;;
33954;SDS011;20233;50.804;7.126;2023-11-18T04:11:34;48.28;;;20.65;;
33954;SDS011;20233;50.804;7.126;2023-11-18T04:14:00;44.80;;;18.85;;
33954;SDS011;20233;50.804;7.126;2023-11-18T04:16:27;43.38;;;18.20;;
33954;SDS011;20233;50.804;7.126;2023-11-18T04:18:52;43.15;;;18.02;;
33954;SDS011;20233;50.804;7.126;2023-11-18T04:21:18;48.15;;;19.92;;
33954;SDS011;20233;50.804;7.126;2023-11-18T04:23:43;53.08;;;20.38;;
33954;SDS011;20233;50.804;7.126;2023-11-18T04:26:11;47.28;;;20.42;;
33954;SDS011;20233;50.804;7.126;2023-11-18T04:28:37;49.38;;;18.95;;
33954;SDS011;20233;50.804;7.126;2023-11-18T04:31:03;48.45;;;18.38;;
33954;SDS011;20233;50.804;7.126;2023-11-18T04:33:32;46.05;;;20.02;;
33954;SDS011;20233;50.804;7.126;2023-11-18T04:35:58;53.95;;;20.55;;
33954;SDS011;20233;50.804;7.126;2023-11-18T04:38:24;54.50;;;19.83;;
33954;SDS011;20233;50.804;7.126;2023-11-18T04:40:54;53.85;;;21.10;;
33954;SDS011;20233;50.804;7.126;2023-11-18T04:43:20;49.80;;;20.00;;
33954;SDS011;20233;50.804;7.126;2023-11-18T04:45:47;45.88;;;18.15;;
33954;SDS011;20233;50.804;7.126;2023-11-18T04:48:13;48.35;;;18.85;;
33954;SDS011;20233;50.804;7.126;2023-11-18T04:50:41;47.67;;;19.42;;
33954;SDS011;20233;50.804;7.126;2023-11-18T04:53:07;46.25;;;19.52;;
33954;SDS011;20233;50.804;7.126;2023-11-18T04:55:35;49.10;;;18.42;;
33954;SDS011;20233;50.804;7.126;2023-11-18T04:58:01;49.10;;;18.08;;
33954;SDS011;20233;50.804;7.126;2023-11-18T05:00:27;46.85;;;19.77;;
33954;SDS011;20233;50.804;7.126;2023-11-18T05:02:53;44.08;;;16.45;;
33954;SDS011;20233;50.804;7.126;2023-11-18T05:05:19;53.92;;;18.75;;
33954;SDS011;20233;50.804;7.126;2023-11-18T05:07:46;47.33;;;19.05;;
33954;SDS011;20233;50.804;7.126;2023-11-18T05:10:11;47.22;;;19.13;;
33954;SDS011;20233;50.804;7.126;2023-11-18T05:12:37;48.97;;;19.02;;
33954;SDS011;20233;50.804;7.126;2023-11-18T05:15:04;49.35;;;20.48;;
33954;SDS011;20233;50.804;7.126;2023-11-18T05:17:32;51.50;;;19.08;;
33954;SDS011;20233;50.804;7.126;2023-11-18T05:20:00;46.40;;;18.65;;
33954;SDS011;20233;50.804;7.126;2023-11-18T05:22:27;46.17;;;18.75;;
33954;SDS011;20233;50.804;7.126;2023-11-18T05:24:53;49.40;;;18.65;;
33954;SDS011;20233;50.804;7.126;2023-11-18T05:27:18;42.03;;;17.27;;
33954;SDS011;20233;50.804;7.126;2023-11-18T05:29:44;45.63;;;17.73;;
33954;SDS011;20233;50.804;7.126;2023-11-18T05:32:19;51.50;;;17.65;;
33954;SDS011;20233;50.804;7.126;2023-11-18T05:34:45;45.97;;;18.13;;
33954;SDS011;20233;50.804;7.126;2023-11-18T05:37:11;47.53;;;17.48;;
33954;SDS011;20233;50.804;7.126;2023-11-18T05:39:37;45.08;;;17.77;;
33954;SDS011;20233;50.804;7.126;2023-11-18T05:42:08;48.53;;;17.48;;
33954;SDS011;20233;50.804;7.126;2023-11-18T05:44:35;42.75;;;17.25;;
33954;SDS011;20233;50.804;7.126;2023-11-18T05:47:03;46.35;;;17.98;;
33954;SDS011;20233;50.804;7.126;2023-11-18T05:49:28;47.70;;;17.65;;
33954;SDS011;20233;50.804;7.126;2023-11-18T05:51:54;47.42;;;18.75;;
33954;SDS011;20233;50.804;7.126;2023-11-18T05:54:19;49.50;;;18.40;;
33954;SDS011;20233;50.804;7.126;2023-11-18T05:56:45;40.17;;;16.88;;
33954;SDS011;20233;50.804;7.126;2023-11-18T05:59:11;44.22;;;17.52;;
33954;SDS011;20233;50.804;7.126;2023-11-18T06:01:38;47.20;;;18.25;;
33954;SDS011;20233;50.804;7.126;2023-11-18T06:04:04;49.05;;;18.35;;
33954;SDS011;20233;50.804;7.126;2023-11-18T06:06:33;42.85;;;16.15;;
33954;SDS011;20233;50.804;7.126;2023-11-18T06:08:58;45.63;;;17.65;;
33954;SDS011;20233;50.804;7.126;2023-11-18T06:11:29;41.95;;;16.65;;
33954;SDS011;20233;50.804;7.126;2023-11-18T06:13:56;39.65;;;15.88;;
33954;SDS011;20233;50.804;7.126;2023-11-18T06:16:22;43.80;;;16.20;;
33954;SDS011;20233;50.804;7.126;2023-11-18T06:18:52;41.53;;;16.30;;
33954;SDS011;20233;50.804;7.126;2023-11-18T06:21:19;42.38;;;17.23;;
33954;SDS011;20233;50.804;7.126;2023-11-18T06:23:49;43.63;;;17.20;;
33954;SDS011;20233;50.804;7.126;2023-11-18T06:26:15;44.78;;;18.02;;
33954;SDS011;20233;50.804;7.126;2023-11-18T06:28:42;38.45;;;17.13;;
33954;SDS011;20233;50.804;7.126;2023-11-18T06:31:09;40.70;;;16.05;;
33954;SDS011;20233;50.804;7.126;2023-11-18T06:33:38;32.15;;;15.20;;
33954;SDS011;20233;50.804;7.126;2023-11-18T06:36:07;39.72;;;16.30;;
33954;SDS011;20233;50.804;7.126;2023-11-18T06:38:39;38.90;;;16.92;;
33954;SDS011;20233;50.804;7.126;2023-11-18T06:41:05;34.00;;;14.55;;
33954;SDS011;20233;50.804;7.126;2023-11-18T06:43:42;35.88;;;14.30;;
33954;SDS011;20233;50.804;7.126;2023-11-18T06:46:19;39.88;;;15.82;;
33954;SDS011;20233;50.804;7.126;2023-11-18T06:48:50;36.92;;;14.30;;
33954;SDS011;20233;50.804;7.126;2023-11-18T06:51:20;36.30;;;15.70;;
33954;SDS011;20233;50.804;7.126;2023-11-18T06:53:49;35.63;;;15.93;;
33954;SDS011;20233;50.804;7.126;2023-11-18T06:56:15;35.20;;;14.15;;
33954;SDS011;20233;50.804;7.126;2023-11-18T06:58:41;32.53;;;14.20;;
33954;SDS011;20233;50.804;7.126;2023-11-18T07:01:07;34.58;;;14.20;;
33954;SDS011;20233;50.804;7.126;2023-11-18T07:03:34;36.67;;;14.38;;
33954;SDS011;20233;50.804;7.126;2023-11-18T07:06:01;32.97;;;13.50;;
33954;SDS011;20233;50.804;7.126;2023-11-18T07:08:27;34.80;;;14.63;;
33954;SDS011;20233;50.804;7.126;2023-11-18T07:10:52;31.35;;;15.07;;
33954;SDS011;20233;50.804;7.126;2023-11-18T07:13:18;33.03;;;14.43;;
33954;SDS011;20233;50.804;7.126;2023-11-18T07:15:43;31.38;;;13.68;;
33954;SDS011;20233;50.804;7.126;2023-11-18T07:18:10;33.83;;;14.40;;
33954;SDS011;20233;50.804;7.126;2023-11-18T07:20:37;33.75;;;14.05;;
33954;SDS011;20233;50.804;7.126;2023-11-18T07:23:02;32.10;;;13.55;;
33954;SDS011;20233;50.804;7.126;2023-11-18T07:25:28;33.58;;;14.82;;
33954;SDS011;20233;50.804;7.126;2023-11-18T07:27:53;32.20;;;13.50;;
33954;SDS011;20233;50.804;7.126;2023-11-18T07:30:20;36.50;;;16.02;;
33954;SDS011;20233;50.804;7.126;2023-11-18T07:32:47;32.47;;;13.50;;
33954;SDS011;20233;50.804;7.126;2023-11-18T07:35:13;32.22;;;13.68;;
33954;SDS011;20233;50.804;7.126;2023-11-18T07:37:38;32.28;;;14.77;;
33954;SDS011;20233;50.804;7.126;2023-11-18T07:40:04;32.42;;;14.60;;
33954;SDS011;20233;50.804;7.126;2023-11-18T07:42:31;29.33;;;14.20;;
33954;SDS011;20233;50.804;7.126;2023-11-18T07:45:00;28.50;;;12.65;;
33954;SDS011;20233;50.804;7.126;2023-11-18T07:47:29;29.77;;;13.65;;
33954;SDS011;20233;50.804;7.126;2023-11-18T07:49:59;36.20;;;13.43;;
33954;SDS011;20233;50.804;7.126;2023-11-18T07:52:27;31.80;;;14.32;;
33954;SDS011;20233;50.804;7.126;2023-11-18T07:54:53;30.20;;;13.20;;
33954;SDS011;20233;50.804;7.126;2023-11-18T07:57:19;33.15;;;14.60;;
33954;SDS011;20233;50.804;7.126;2023-11-18T07:59:45;32.30;;;14.32;;
33954;SDS011;20233;50.804;7.126;2023-11-18T08:02:11;34.08;;;14.15;;
33954;SDS011;20233;50.804;7.126;2023-11-18T08:04:39;34.72;;;14.77;;
33954;SDS011;20233;50.804;7.126;2023-11-18T08:07:06;33.17;;;14.43;;
33954;SDS011;20233;50.804;7.126;2023-11-18T08:09:32;31.63;;;13.90;;
33954;SDS011;20233;50.804;7.126;2023-11-18T08:11:58;29.05;;;13.23;;
33954;SDS011;20233;50.804;7.126;2023-11-18T08:14:23;33.83;;;14.40;;
33954;SDS011;20233;50.804;7.126;2023-11-18T08:16:49;33.28;;;13.73;;
33954;SDS011;20233;50.804;7.126;2023-11-18T08:19:16;32.78;;;13.32;;
33954;SDS011;20233;50.804;7.126;2023-11-18T08:21:42;31.60;;;14.20;;
33954;SDS011;20233;50.804;7.126;2023-11-18T08:24:07;31.00;;;14.07;;
33954;SDS011;20233;50.804;7.126;2023-11-18T08:26:34;31.38;;;14.15;;
33954;SDS011;20233;50.804;7.126;2023-11-18T08:29:00;30.02;;;13.80;;
33954;SDS011;20233;50.804;7.126;2023-11-18T08:31:26;27.92;;;13.10;;
33954;SDS011;20233;50.804;7.126;2023-11-18T08:33:52;30.23;;;13.23;;
33954;SDS011;20233;50.804;7.126;2023-11-18T08:36:19;28.90;;;12.85;;
33954;SDS011;20233;50.804;7.126;2023-11-18T08:38:45;30.58;;;14.68;;
33954;SDS011;20233;50.804;7.126;2023-11-18T08:41:12;31.00;;;13.07;;
33954;SDS011;20233;50.804;7.126;2023-11-18T08:43:37;28.92;;;13.25;;
33954;SDS011;20233;50.804;7.126;2023-11-18T08:46:05;25.85;;;13.52;;
33954;SDS011;20233;50.804;7.126;2023-11-18T08:48:32;25.50;;;11.88;;
33954;SDS011;20233;50.804;7.126;2023-11-18T08:50:59;25.73;;;13.13;;
33954;SDS011;20233;50.804;7.126;2023-11-18T08:53:26;25.05;;;13.10;;
33954;SDS011;20233;50.804;7.126;2023-11-18T08:55:52;28.70;;;13.77;;
33954;SDS011;20233;50.804;7.126;2023-11-18T08:58:21;27.60;;;12.68;;
33954;SDS011;20233;50.804;7.126;2023-11-18T09:00:52;24.15;;;12.15;;
33954;SDS011;20233;50.804;7.126;2023-11-18T09:03:25;27.05;;;13.02;;
33954;SDS011;20233;50.804;7.126;2023-11-18T09:05:59;25.75;;;12.70;;
33954;SDS011;20233;50.804;7.126;2023-11-18T09:08:42;25.83;;;12.50;;
33954;SDS011;20233;50.804;7.126;2023-11-18T09:11:10;31.27;;;15.32;;
33954;SDS011;20233;50.804;7.126;2023-11-18T09:13:40;29.08;;;13.95;;
33954;SDS011;20233;50.804;7.126;2023-11-18T09:16:14;23.98;;;12.60;;
33954;SDS011;20233;50.804;7.126;2023-11-18T09:18:42;31.35;;;14.98;;
33954;SDS011;20233;50.804;7.126;2023-11-18T09:21:11;27.40;;;15.13;;
33954;SDS011;20233;50.804;7.126;2023-11-18T09:23:40;28.38;;;15.10;;
33954;SDS011;20233;50.804;7.126;2023-11-18T09:26:07;27.90;;;14.80;;
33954;SDS011;20233;50.804;7.126;2023-11-18T09:28:34;26.38;;;15.32;;
33954;SDS011;20233;50.804;7.126;2023-11-18T09:31:00;26.63;;;14.73;;
33954;SDS011;20233;50.804;7.126;2023-11-18T09:33:29;29.50;;;14.10;;
33954;SDS011;20233;50.804;7.126;2023-11-18T09:36:00;26.73;;;13.73;;
33954;SDS011;20233;50.804;7.126;2023-11-18T09:38:30;23.23;;;12.30;;
33954;SDS011;20233;50.804;7.126;2023-11-18T09:40:58;24.13;;;12.00;;
33954;SDS011;20233;50.804;7.126;2023-11-18T09:43:29;20.00;;;11.48;;
33954;SDS011;20233;50.804;7.126;2023-11-18T09:46:08;20.73;;;10.90;;
33954;SDS011;20233;50.804;7.126;2023-11-18T09:48:45;19.73;;;10.35;;
33954;SDS011;20233;50.804;7.126;2023-11-18T09:51:14;17.40;;;9.82;;
33954;SDS011;20233;50.804;7.126;2023-11-18T09:53:47;22.13;;;11.75;;
33954;SDS011;20233;50.804;7.126;2023-11-18T09:59:23;21.23;;;11.30;;
33954;SDS011;20233;50.804;7.126;2023-11-18T10:02:02;19.42;;;11.02;;
33954;SDS011;20233;50.804;7.126;2023-11-18T10:04:30;18.33;;;10.50;;
33954;SDS011;20233;50.804;7.126;2023-11-18T10:06:57;20.63;;;10.63;;
33954;SDS011;20233;50.804;7.126;2023-11-18T10:09:28;18.00;;;10.60;;
33954;SDS011;20233;50.804;7.126;2023-11-18T10:12:04;17.08;;;9.88;;
33954;SDS011;20233;50.804;7.126;2023-11-18T10:17:04;16.80;;;9.63;;
33954;SDS011;20233;50.804;7.126;2023-11-18T10:19:51;15.57;;;8.52;;
33954;SDS011;20233;50.804;7.126;2023-11-18T10:22:23;22.48;;;10.18;;
33954;SDS011;20233;50.804;7.126;2023-11-18T10:24:54;14.07;;;9.18;;
33954;SDS011;20233;50.804;7.126;2023-11-18T10:27:22;16.52;;;7.47;;
33954;SDS011;20233;50.804;7.126;2023-11-18T10:30:05;12.80;;;7.38;;
33954;SDS011;20233;50.804;7.126;2023-11-18T10:32:55;11.30;;;6.43;;
33954;SDS011;20233;50.804;7.126;2023-11-18T10:35:34;11.47;;;7.60;;
33954;SDS011;20233;50.804;7.126;2023-11-18T10:38:22;12.32;;;6.82;;
33954;SDS011;20233;50.804;7.126;2023-11-18T10:40:52;15.18;;;7.28;;
33954;SDS011;20233;50.804;7.126;2023-11-18T10:43:21;12.50;;;7.38;;
33954;SDS011;20233;50.804;7.126;2023-11-18T10:48:48;13.10;;;7.18;;
33954;SDS011;20233;50.804;7.126;2023-11-18T10:51:17;11.10;;;6.68;;
33954;SDS011;20233;50.804;7.126;2023-11-18T10:53:52;11.05;;;6.30;;
33954;SDS011;20233;50.804;7.126;2023-11-18T10:56:24;10.23;;;5.50;;
33954;SDS011;20233;50.804;7.126;2023-11-18T10:59:11;10.27;;;6.40;;
33954;SDS011;20233;50.804;7.126;2023-11-18T11:01:44;9.27;;;5.13;;
33954;SDS011;20233;50.804;7.126;2023-11-18T11:04:13;15.02;;;9.05;;
33954;SDS011;20233;50.804;7.126;2023-11-18T11:06:52;19.58;;;10.23;;
33954;SDS011;20233;50.804;7.126;2023-11-18T11:09:22;12.80;;;6.65;;
33954;SDS011;20233;50.804;7.126;2023-11-18T11:14:22;10.07;;;6.28;;
33954;SDS011;20233;50.804;7.126;2023-11-18T11:17:02;13.68;;;6.40;;
33954;SDS011;20233;50.804;7.126;2023-11-18T11:22:14;10.85;;;5.28;;
33954;SDS011;20233;50.804;7.126;2023-11-18T11:28:15;11.98;;;5.45;;
33954;SDS011;20233;50.804;7.126;2023-11-18T11:31:03;9.77;;;5.38;;
33954;SDS011;20233;50.804;7.126;2023-11-18T11:33:43;10.57;;;6.15;;
33954;SDS011;20233;50.804;7.126;2023-11-18T11:36:20;13.35;;;5.68;;
33954;SDS011;20233;50.804;7.126;2023-11-18T11:38:53;10.68;;;5.03;;
33954;SDS011;20233;50.804;7.126;2023-11-18T11:41:21;12.95;;;5.88;;
33954;SDS011;20233;50.804;7.126;2023-11-18T11:43:54;10.75;;;6.63;;
33954;SDS011;20233;50.804;7.126;2023-11-18T11:46:26;11.70;;;5.53;;
33954;SDS011;20233;50.804;7.126;2023-11-18T11:49:02;11.65;;;5.72;;
33954;SDS011;20233;50.804;7.126;2023-11-18T11:54:24;11.98;;;5.70;;
33954;SDS011;20233;50.804;7.126;2023-11-18T11:57:01;10.85;;;5.75;;
33954;SDS011;20233;50.804;7.126;2023-11-18T12:02:26;12.15;;;5.13;;
33954;SDS011;20233;50.804;7.126;2023-11-18T12:04:58;10.52;;;5.68;;
33954;SDS011;20233;50.804;7.126;2023-11-18T12:07:31;9.98;;;5.13;;
33954;SDS011;20233;50.804;7.126;2023-11-18T12:10:07;11.25;;;5.15;;
33954;SDS011;20233;50.804;7.126;2023-11-18T12:12:40;10.93;;;5.78;;
33954;SDS011;20233;50.804;7.126;2023-11-18T12:15:09;11.30;;;5.75;;
33954;SDS011;20233;50.804;7.126;2023-11-18T12:20:40;11.82;;;5.53;;
33954;SDS011;20233;50.804;7.126;2023-11-18T12:23:13;11.05;;;5.50;;
33954;SDS011;20233;50.804;7.126;2023-11-18T12:25:41;11.20;;;5.43;;
33954;SDS011;20233;50.804;7.126;2023-11-18T12:28:08;10.10;;;5.10;;
33954;SDS011;20233;50.804;7.126;2023-11-18T12:30:44;13.52;;;5.32;;
33954;SDS011;20233;50.804;7.126;2023-11-18T12:41:48;10.27;;;5.50;;
33954;SDS011;20233;50.804;7.126;2023-11-18T12:47:09;7.93;;;4.32;;
33954;SDS011;20233;50.804;7.126;2023-11-18T12:49:47;11.38;;;5.03;;
33954;SDS011;20233;50.804;7.126;2023-11-18T12:52:20;9.02;;;4.38;;
33954;SDS011;20233;50.804;7.126;2023-11-18T12:54:49;8.23;;;3.38;;
33954;SDS011;20233;50.804;7.126;2023-11-18T12:57:21;7.18;;;3.47;;
33954;SDS011;20233;50.804;7.126;2023-11-18T12:59:57;10.15;;;4.65;;
33954;SDS011;20233;50.804;7.126;2023-11-18T13:02:26;8.43;;;3.85;;
33954;SDS011;20233;50.804;7.126;2023-11-18T13:04:54;7.55;;;5.00;;
33954;SDS011;20233;50.804;7.126;2023-11-18T13:07:21;7.75;;;3.22;;
33954;SDS011;20233;50.804;7.126;2023-11-18T13:09:50;7.75;;;3.28;;
33954;SDS011;20233;50.804;7.126;2023-11-18T13:12:19;7.18;;;3.75;;
33954;SDS011;20233;50.804;7.126;2023-11-18T13:14:49;7.95;;;2.92;;
33954;SDS011;20233;50.804;7.126;2023-11-18T13:17:15;6.88;;;3.30;;
33954;SDS011;20233;50.804;7.126;2023-11-18T13:19:43;9.13;;;2.97;;
33954;SDS011;20233;50.804;7.126;2023-11-18T13:22:10;8.27;;;3.13;;
33954;SDS011;20233;50.804;7.126;2023-11-18T13:24:38;5.88;;;2.45;;
33954;SDS011;20233;50.804;7.126;2023-11-18T13:27:10;5.22;;;2.10;;
33954;SDS011;20233;50.804;7.126;2023-11-18T13:29:43;5.65;;;2.70;;
33954;SDS011;20233;50.804;7.126;2023-11-18T13:32:18;7.75;;;2.60;;
33954;SDS011;20233;50.804;7.126;2023-11-18T13:34:51;7.22;;;2.17;;
33954;SDS011;20233;50.804;7.126;2023-11-18T13:37:17;6.28;;;2.47;;
33954;SDS011;20233;50.804;7.126;2023-11-18T13:39:56;7.03;;;2.40;;
33954;SDS011;20233;50.804;7.126;2023-11-18T13:42:31;5.43;;;1.83;;
33954;SDS011;20233;50.804;7.126;2023-11-18T13:44:59;6.40;;;3.03;;
33954;SDS011;20233;50.804;7.126;2023-11-18T13:47:34;7.05;;;2.42;;
33954;SDS011;20233;50.804;7.126;2023-11-18T13:50:05;4.57;;;2.28;;
33954;SDS011;20233;50.804;7.126;2023-11-18T13:52:33;5.95;;;2.00;;
33954;SDS011;20233;50.804;7.126;2023-11-18T13:55:00;6.22;;;1.95;;
33954;SDS011;20233;50.804;7.126;2023-11-18T13:57:31;6.13;;;2.25;;
33954;SDS011;20233;50.804;7.126;2023-11-18T13:59:58;5.63;;;2.13;;
33954;SDS011;20233;50.804;7.126;2023-11-18T14:02:25;5.63;;;2.67;;
33954;SDS011;20233;50.804;7.126;2023-11-18T14:04:54;8.60;;;2.83;;
33954;SDS011;20233;50.804;7.126;2023-11-18T14:07:22;8.70;;;3.05;;
33954;SDS011;20233;50.804;7.126;2023-11-18T14:09:49;6.95;;;2.30;;
33954;SDS011;20233;50.804;7.126;2023-11-18T14:12:17;8.52;;;2.88;;
33954;SDS011;20233;50.804;7.126;2023-11-18T14:14:44;8.35;;;2.53;;
33954;SDS011;20233;50.804;7.126;2023-11-18T14:17:10;8.45;;;2.80;;
33954;SDS011;20233;50.804;7.126;2023-11-18T14:19:36;5.90;;;3.40;;
33954;SDS011;20233;50.804;7.126;2023-11-18T14:22:06;9.32;;;3.83;;
33954;SDS011;20233;50.804;7.126;2023-11-18T14:24:33;7.75;;;2.88;;
33954;SDS011;20233;50.804;7.126;2023-11-18T14:27:00;5.65;;;2.13;;
33954;SDS011;20233;50.804;7.126;2023-11-18T14:29:26;4.88;;;2.70;;
33954;SDS011;20233;50.804;7.126;2023-11-18T14:31:53;8.50;;;3.65;;
33954;SDS011;20233;50.804;7.126;2023-11-18T14:34:20;6.70;;;2.33;;
33954;SDS011;20233;50.804;7.126;2023-11-18T14:36:46;6.45;;;2.80;;
33954;SDS011;20233;50.804;7.126;2023-11-18T14:39:12;7.15;;;2.30;;
33954;SDS011;20233;50.804;7.126;2023-11-18T14:41:44;6.40;;;2.17;;
33954;SDS011;20233;50.804;7.126;2023-11-18T14:44:11;5.60;;;2.15;;
33954;SDS011;20233;50.804;7.126;2023-11-18T14:46:37;5.65;;;2.20;;
33954;SDS011;20233;50.804;7.126;2023-11-18T14:49:06;4.88;;;2.00;;
33954;SDS011;20233;50.804;7.126;2023-11-18T14:51:32;7.05;;;2.33;;
33954;SDS011;20233;50.804;7.126;2023-11-18T14:54:01;5.18;;;2.63;;
33954;SDS011;20233;50.804;7.126;2023-11-18T14:56:26;7.68;;;2.72;;
33954;SDS011;20233;50.804;7.126;2023-11-18T14:58:52;7.28;;;2.95;;
33954;SDS011;20233;50.804;7.126;2023-11-18T15:01:19;7.60;;;2.83;;
33954;SDS011;20233;50.804;7.126;2023-11-18T15:03:46;7.55;;;2.72;;
33954;SDS011;20233;50.804;7.126;2023-11-18T15:06:12;5.25;;;2.80;;
33954;SDS011;20233;50.804;7.126;2023-11-18T15:08:38;5.65;;;2.83;;
33954;SDS011;20233;50.804;7.126;2023-11-18T15:11:06;5.90;;;3.20;;
33954;SDS011;20233;50.804;7.126;2023-11-18T15:13:32;6.78;;;4.05;;